sensor_id;sensor_type;location;lat;lon;timestamp;P1;durP1;ratioP1;P2;durP2;ratioP2
29728;SDS011;20055;51.498;11.960;2023-02-18T00:00:15;6.43;;;2.33;;
29728;SDS011;20055;51.498;11.960;2023-02-18T00:02:42;7.80;;;2.28;;
29728;SDS011;20055;51.498;11.960;2023-02-18T00:05:09;7.25;;;2.05;;
29728;SDS011;20055;51.498;11.960;2023-02-18T00:07:36;8.43;;;3.05;;
29728;SDS011;20055;51.498;11.960;2023-02-18T00:10:03;7.85;;;2.28;;
29728;SDS011;20055;51.498;11.960;2023-02-18T00:12:30;7.88;;;2.58;;
29728;SDS011;20055;51.498;11.960;2023-02-18T00:14:57;8.15;;;2.75;;
29728;SDS011;20055;51.498;11.960;2023-02-18T00:17:24;15.65;;;2.63;;
29728;SDS011;20055;51.498;11.960;2023-02-18T00:19:50;8.75;;;3.05;;
29728;SDS011;20055;51.498;11.960;2023-02-18T00:22:17;18.90;;;2.67;;
29728;SDS011;20055;51.498;11.960;2023-02-18T00:24:44;14.50;;;3.72;;
29728;SDS011;20055;51.498;11.960;2023-02-18T00:27:10;9.60;;;2.40;;
29728;SDS011;20055;51.498;11.960;2023-02-18T00:29:37;9.05;;;2.72;;
29728;SDS011;20055;51.498;11.960;2023-02-18T00:32:04;9.18;;;2.80;;
29728;SDS011;20055;51.498;11.960;2023-02-18T00:34:31;9.43;;;2.30;;
29728;SDS011;20055;51.498;11.960;2023-02-18T00:37:02;10.30;;;2.33;;
29728;SDS011;20055;51.498;11.960;2023-02-18T00:39:29;7.88;;;2.42;;
29728;SDS011;20055;51.498;11.960;2023-02-18T00:41:56;9.75;;;2.70;;
29728;SDS011;20055;51.498;11.960;2023-02-18T00:44:25;9.40;;;2.85;;
29728;SDS011;20055;51.498;11.960;2023-02-18T00:46:52;9.82;;;3.00;;
29728;SDS011;20055;51.498;11.960;2023-02-18T00:49:19;9.30;;;2.53;;
29728;SDS011;20055;51.498;11.960;2023-02-18T00:51:45;10.02;;;2.70;;
29728;SDS011;20055;51.498;11.960;2023-02-18T00:54:12;20.70;;;2.67;;
29728;SDS011;20055;51.498;11.960;2023-02-18T00:56:38;13.55;;;2.28;;
29728;SDS011;20055;51.498;11.960;2023-02-18T00:59:05;16.80;;;3.38;;
29728;SDS011;20055;51.498;11.960;2023-02-18T01:01:32;8.52;;;2.40;;
29728;SDS011;20055;51.498;11.960;2023-02-18T01:03:59;14.80;;;2.55;;
29728;SDS011;20055;51.498;11.960;2023-02-18T01:06:26;7.82;;;2.42;;
29728;SDS011;20055;51.498;11.960;2023-02-18T01:08:53;12.05;;;2.88;;
29728;SDS011;20055;51.498;11.960;2023-02-18T01:11:21;10.32;;;2.35;;
29728;SDS011;20055;51.498;11.960;2023-02-18T01:13:47;15.10;;;2.90;;
29728;SDS011;20055;51.498;11.960;2023-02-18T01:16:15;7.57;;;2.55;;
29728;SDS011;20055;51.498;11.960;2023-02-18T01:18:42;14.10;;;3.30;;
29728;SDS011;20055;51.498;11.960;2023-02-18T01:21:09;17.90;;;2.72;;
29728;SDS011;20055;51.498;11.960;2023-02-18T01:23:36;12.70;;;3.75;;
29728;SDS011;20055;51.498;11.960;2023-02-18T01:26:03;16.38;;;3.13;;
29728;SDS011;20055;51.498;11.960;2023-02-18T01:28:30;17.35;;;3.20;;
29728;SDS011;20055;51.498;11.960;2023-02-18T01:30:57;14.02;;;2.72;;
29728;SDS011;20055;51.498;11.960;2023-02-18T01:33:24;20.75;;;2.60;;
29728;SDS011;20055;51.498;11.960;2023-02-18T01:35:51;12.70;;;3.00;;
29728;SDS011;20055;51.498;11.960;2023-02-18T01:38:18;9.95;;;3.20;;
29728;SDS011;20055;51.498;11.960;2023-02-18T01:40:50;12.20;;;2.63;;
29728;SDS011;20055;51.498;11.960;2023-02-18T01:43:17;21.17;;;3.42;;
29728;SDS011;20055;51.498;11.960;2023-02-18T01:46:02;19.63;;;3.13;;
29728;SDS011;20055;51.498;11.960;2023-02-18T01:48:52;9.95;;;2.85;;
29728;SDS011;20055;51.498;11.960;2023-02-18T01:51:22;9.82;;;2.47;;
29728;SDS011;20055;51.498;11.960;2023-02-18T01:53:53;12.77;;;2.65;;
29728;SDS011;20055;51.498;11.960;2023-02-18T01:56:25;12.90;;;3.63;;
29728;SDS011;20055;51.498;11.960;2023-02-18T01:58:53;27.52;;;3.50;;
29728;SDS011;20055;51.498;11.960;2023-02-18T02:01:20;11.93;;;2.83;;
29728;SDS011;20055;51.498;11.960;2023-02-18T02:03:48;8.85;;;2.63;;
29728;SDS011;20055;51.498;11.960;2023-02-18T02:06:16;14.38;;;2.80;;
29728;SDS011;20055;51.498;11.960;2023-02-18T02:08:43;25.70;;;3.38;;
29728;SDS011;20055;51.498;11.960;2023-02-18T02:11:16;10.52;;;2.88;;
29728;SDS011;20055;51.498;11.960;2023-02-18T02:22:00;9.95;;;3.50;;
29728;SDS011;20055;51.498;11.960;2023-02-18T02:27:20;10.73;;;2.92;;
29728;SDS011;20055;51.498;11.960;2023-02-18T02:37:48;13.20;;;2.75;;
29728;SDS011;20055;51.498;11.960;2023-02-18T02:40:22;11.55;;;2.72;;
29728;SDS011;20055;51.498;11.960;2023-02-18T02:42:57;16.05;;;3.50;;
29728;SDS011;20055;51.498;11.960;2023-02-18T02:45:35;16.52;;;3.22;;
29728;SDS011;20055;51.498;11.960;2023-02-18T02:53:05;21.00;;;3.92;;
29728;SDS011;20055;51.498;11.960;2023-02-18T02:55:34;18.77;;;3.83;;
29728;SDS011;20055;51.498;11.960;2023-02-18T02:58:01;13.30;;;2.85;;
29728;SDS011;20055;51.498;11.960;2023-02-18T03:00:35;13.82;;;3.17;;
29728;SDS011;20055;51.498;11.960;2023-02-18T03:15:55;14.38;;;4.13;;
29728;SDS011;20055;51.498;11.960;2023-02-18T03:18:33;18.88;;;4.45;;
29728;SDS011;20055;51.498;11.960;2023-02-18T03:23:31;17.60;;;3.80;;
29728;SDS011;20055;51.498;11.960;2023-02-18T03:26:00;14.90;;;4.03;;
29728;SDS011;20055;51.498;11.960;2023-02-18T03:28:28;16.95;;;3.65;;
29728;SDS011;20055;51.498;11.960;2023-02-18T03:31:15;13.43;;;3.65;;
29728;SDS011;20055;51.498;11.960;2023-02-18T03:33:45;18.08;;;3.67;;
29728;SDS011;20055;51.498;11.960;2023-02-18T03:36:14;11.18;;;3.53;;
29728;SDS011;20055;51.498;11.960;2023-02-18T03:38:52;18.15;;;4.22;;
29728;SDS011;20055;51.498;11.960;2023-02-18T03:41:20;16.38;;;3.75;;
29728;SDS011;20055;51.498;11.960;2023-02-18T03:43:50;13.63;;;3.90;;
29728;SDS011;20055;51.498;11.960;2023-02-18T03:46:17;15.35;;;3.90;;
29728;SDS011;20055;51.498;11.960;2023-02-18T03:48:44;15.27;;;3.80;;
29728;SDS011;20055;51.498;11.960;2023-02-18T03:51:11;15.23;;;3.53;;
29728;SDS011;20055;51.498;11.960;2023-02-18T03:53:37;17.90;;;3.33;;
29728;SDS011;20055;51.498;11.960;2023-02-18T03:56:04;12.20;;;3.90;;
29728;SDS011;20055;51.498;11.960;2023-02-18T03:58:31;11.05;;;3.38;;
29728;SDS011;20055;51.498;11.960;2023-02-18T04:00:58;20.70;;;3.03;;
29728;SDS011;20055;51.498;11.960;2023-02-18T04:03:24;25.10;;;3.03;;
29728;SDS011;20055;51.498;11.960;2023-02-18T04:05:51;19.58;;;3.90;;
29728;SDS011;20055;51.498;11.960;2023-02-18T04:08:18;13.80;;;4.32;;
29728;SDS011;20055;51.498;11.960;2023-02-18T04:10:44;19.15;;;3.67;;
29728;SDS011;20055;51.498;11.960;2023-02-18T04:13:11;13.40;;;4.45;;
29728;SDS011;20055;51.498;11.960;2023-02-18T04:15:38;17.80;;;2.83;;
29728;SDS011;20055;51.498;11.960;2023-02-18T04:18:05;27.27;;;3.90;;
29728;SDS011;20055;51.498;11.960;2023-02-18T04:20:31;18.73;;;3.70;;
29728;SDS011;20055;51.498;11.960;2023-02-18T04:22:58;13.32;;;3.38;;
29728;SDS011;20055;51.498;11.960;2023-02-18T04:25:25;14.90;;;3.65;;
29728;SDS011;20055;51.498;11.960;2023-02-18T04:27:52;11.52;;;3.38;;
29728;SDS011;20055;51.498;11.960;2023-02-18T04:30:18;19.92;;;3.83;;
29728;SDS011;20055;51.498;11.960;2023-02-18T04:32:45;20.67;;;3.60;;
29728;SDS011;20055;51.498;11.960;2023-02-18T04:35:12;16.13;;;3.17;;
29728;SDS011;20055;51.498;11.960;2023-02-18T04:37:38;26.35;;;3.50;;
29728;SDS011;20055;51.498;11.960;2023-02-18T04:40:05;21.05;;;3.13;;
29728;SDS011;20055;51.498;11.960;2023-02-18T04:42:32;14.52;;;3.90;;
29728;SDS011;20055;51.498;11.960;2023-02-18T04:44:59;17.05;;;3.78;;
29728;SDS011;20055;51.498;11.960;2023-02-18T04:47:25;21.10;;;4.13;;
29728;SDS011;20055;51.498;11.960;2023-02-18T04:49:52;17.50;;;3.08;;
29728;SDS011;20055;51.498;11.960;2023-02-18T04:52:20;15.60;;;3.65;;
29728;SDS011;20055;51.498;11.960;2023-02-18T04:54:46;9.65;;;3.40;;
29728;SDS011;20055;51.498;11.960;2023-02-18T04:57:14;12.00;;;4.60;;
29728;SDS011;20055;51.498;11.960;2023-02-18T04:59:41;20.73;;;3.80;;
29728;SDS011;20055;51.498;11.960;2023-02-18T05:02:07;17.65;;;4.13;;
29728;SDS011;20055;51.498;11.960;2023-02-18T05:04:34;18.65;;;4.38;;
29728;SDS011;20055;51.498;11.960;2023-02-18T05:07:00;14.52;;;3.97;;
29728;SDS011;20055;51.498;11.960;2023-02-18T05:09:27;15.88;;;3.67;;
29728;SDS011;20055;51.498;11.960;2023-02-18T05:11:54;10.40;;;3.75;;
29728;SDS011;20055;51.498;11.960;2023-02-18T05:14:20;18.90;;;4.47;;
29728;SDS011;20055;51.498;11.960;2023-02-18T05:16:47;15.23;;;4.15;;
29728;SDS011;20055;51.498;11.960;2023-02-18T05:19:14;16.45;;;4.75;;
29728;SDS011;20055;51.498;11.960;2023-02-18T05:21:42;21.75;;;5.38;;
29728;SDS011;20055;51.498;11.960;2023-02-18T05:24:09;22.90;;;4.90;;
29728;SDS011;20055;51.498;11.960;2023-02-18T05:26:36;22.20;;;4.63;;
29728;SDS011;20055;51.498;11.960;2023-02-18T05:29:02;14.57;;;4.70;;
29728;SDS011;20055;51.498;11.960;2023-02-18T05:31:29;20.55;;;4.78;;
29728;SDS011;20055;51.498;11.960;2023-02-18T05:33:55;21.50;;;5.78;;
29728;SDS011;20055;51.498;11.960;2023-02-18T05:36:22;19.17;;;5.25;;
29728;SDS011;20055;51.498;11.960;2023-02-18T05:38:49;13.93;;;4.75;;
29728;SDS011;20055;51.498;11.960;2023-02-18T05:41:15;25.65;;;6.60;;
29728;SDS011;20055;51.498;11.960;2023-02-18T05:43:42;16.10;;;5.97;;
29728;SDS011;20055;51.498;11.960;2023-02-18T05:46:27;21.90;;;6.97;;
29728;SDS011;20055;51.498;11.960;2023-02-18T05:48:55;18.88;;;6.30;;
29728;SDS011;20055;51.498;11.960;2023-02-18T05:51:22;23.27;;;7.53;;
29728;SDS011;20055;51.498;11.960;2023-02-18T05:53:48;22.45;;;6.95;;
29728;SDS011;20055;51.498;11.960;2023-02-18T05:56:15;24.33;;;7.07;;
29728;SDS011;20055;51.498;11.960;2023-02-18T05:58:41;15.73;;;6.50;;
29728;SDS011;20055;51.498;11.960;2023-02-18T06:01:08;19.73;;;7.25;;
29728;SDS011;20055;51.498;11.960;2023-02-18T06:03:35;22.75;;;7.53;;
29728;SDS011;20055;51.498;11.960;2023-02-18T06:06:01;27.38;;;8.65;;
29728;SDS011;20055;51.498;11.960;2023-02-18T06:08:28;19.52;;;8.48;;
29728;SDS011;20055;51.498;11.960;2023-02-18T06:10:55;26.38;;;8.88;;
29728;SDS011;20055;51.498;11.960;2023-02-18T06:13:21;29.77;;;8.88;;
29728;SDS011;20055;51.498;11.960;2023-02-18T06:15:51;24.85;;;9.25;;
29728;SDS011;20055;51.498;11.960;2023-02-18T06:18:20;27.00;;;9.70;;
29728;SDS011;20055;51.498;11.960;2023-02-18T06:20:47;24.02;;;8.23;;
29728;SDS011;20055;51.498;11.960;2023-02-18T06:23:14;18.70;;;9.35;;
29728;SDS011;20055;51.498;11.960;2023-02-18T06:25:41;23.35;;;9.95;;
29728;SDS011;20055;51.498;11.960;2023-02-18T06:28:07;21.48;;;9.30;;
29728;SDS011;20055;51.498;11.960;2023-02-18T06:30:34;20.85;;;9.13;;
29728;SDS011;20055;51.498;11.960;2023-02-18T06:33:01;18.70;;;9.02;;
29728;SDS011;20055;51.498;11.960;2023-02-18T06:35:30;22.10;;;9.25;;
29728;SDS011;20055;51.498;11.960;2023-02-18T06:37:57;23.25;;;9.30;;
29728;SDS011;20055;51.498;11.960;2023-02-18T06:40:24;30.00;;;9.55;;
29728;SDS011;20055;51.498;11.960;2023-02-18T06:42:50;31.10;;;10.77;;
29728;SDS011;20055;51.498;11.960;2023-02-18T06:45:17;19.50;;;9.02;;
29728;SDS011;20055;51.498;11.960;2023-02-18T06:47:44;26.00;;;10.52;;
29728;SDS011;20055;51.498;11.960;2023-02-18T06:50:10;25.77;;;9.63;;
29728;SDS011;20055;51.498;11.960;2023-02-18T06:52:37;34.15;;;9.73;;
29728;SDS011;20055;51.498;11.960;2023-02-18T06:55:04;24.38;;;9.15;;
29728;SDS011;20055;51.498;11.960;2023-02-18T06:57:31;21.50;;;9.05;;
29728;SDS011;20055;51.498;11.960;2023-02-18T06:59:58;29.42;;;10.13;;
29728;SDS011;20055;51.498;11.960;2023-02-18T07:02:26;26.10;;;10.95;;
29728;SDS011;20055;51.498;11.960;2023-02-18T07:04:53;33.33;;;10.80;;
29728;SDS011;20055;51.498;11.960;2023-02-18T07:07:20;19.58;;;10.00;;
29728;SDS011;20055;51.498;11.960;2023-02-18T07:09:46;39.67;;;11.30;;
29728;SDS011;20055;51.498;11.960;2023-02-18T07:12:14;33.95;;;13.18;;
29728;SDS011;20055;51.498;11.960;2023-02-18T07:14:40;25.75;;;10.88;;
29728;SDS011;20055;51.498;11.960;2023-02-18T07:17:07;26.25;;;11.82;;
29728;SDS011;20055;51.498;11.960;2023-02-18T07:19:34;32.88;;;11.02;;
29728;SDS011;20055;51.498;11.960;2023-02-18T07:22:00;24.67;;;10.73;;
29728;SDS011;20055;51.498;11.960;2023-02-18T07:24:27;24.98;;;10.98;;
29728;SDS011;20055;51.498;11.960;2023-02-18T07:26:54;24.38;;;11.23;;
29728;SDS011;20055;51.498;11.960;2023-02-18T07:29:20;23.58;;;9.20;;
29728;SDS011;20055;51.498;11.960;2023-02-18T07:31:47;23.38;;;10.02;;
29728;SDS011;20055;51.498;11.960;2023-02-18T07:34:14;26.60;;;11.32;;
29728;SDS011;20055;51.498;11.960;2023-02-18T07:36:40;20.55;;;10.15;;
29728;SDS011;20055;51.498;11.960;2023-02-18T07:39:07;32.85;;;11.93;;
29728;SDS011;20055;51.498;11.960;2023-02-18T07:41:34;26.92;;;11.68;;
29728;SDS011;20055;51.498;11.960;2023-02-18T07:44:00;27.58;;;12.60;;
29728;SDS011;20055;51.498;11.960;2023-02-18T07:46:27;26.45;;;12.60;;
29728;SDS011;20055;51.498;11.960;2023-02-18T07:48:53;28.40;;;11.65;;
29728;SDS011;20055;51.498;11.960;2023-02-18T07:51:21;24.83;;;11.57;;
29728;SDS011;20055;51.498;11.960;2023-02-18T07:53:48;27.50;;;13.70;;
29728;SDS011;20055;51.498;11.960;2023-02-18T07:56:14;29.35;;;12.85;;
29728;SDS011;20055;51.498;11.960;2023-02-18T07:58:43;30.45;;;11.45;;
29728;SDS011;20055;51.498;11.960;2023-02-18T08:01:11;29.13;;;11.70;;
29728;SDS011;20055;51.498;11.960;2023-02-18T08:03:41;23.35;;;11.18;;
29728;SDS011;20055;51.498;11.960;2023-02-18T08:06:13;24.90;;;10.95;;
29728;SDS011;20055;51.498;11.960;2023-02-18T08:08:45;21.08;;;9.57;;
29728;SDS011;20055;51.498;11.960;2023-02-18T08:11:12;15.60;;;9.15;;
29728;SDS011;20055;51.498;11.960;2023-02-18T08:13:38;18.77;;;8.93;;
29728;SDS011;20055;51.498;11.960;2023-02-18T08:16:05;13.55;;;6.18;;
29728;SDS011;20055;51.498;11.960;2023-02-18T08:18:32;7.00;;;4.70;;
29728;SDS011;20055;51.498;11.960;2023-02-18T08:20:59;8.85;;;4.15;;
29728;SDS011;20055;51.498;11.960;2023-02-18T08:23:26;4.88;;;3.70;;
29728;SDS011;20055;51.498;11.960;2023-02-18T08:25:52;4.50;;;3.20;;
29728;SDS011;20055;51.498;11.960;2023-02-18T08:28:20;6.28;;;2.42;;
29728;SDS011;20055;51.498;11.960;2023-02-18T08:30:48;5.88;;;2.72;;
29728;SDS011;20055;51.498;11.960;2023-02-18T08:33:15;3.03;;;2.33;;
29728;SDS011;20055;51.498;11.960;2023-02-18T08:35:42;6.03;;;2.55;;
29728;SDS011;20055;51.498;11.960;2023-02-18T08:38:09;7.07;;;2.65;;
29728;SDS011;20055;51.498;11.960;2023-02-18T08:40:35;6.65;;;3.20;;
29728;SDS011;20055;51.498;11.960;2023-02-18T08:43:02;5.68;;;1.83;;
29728;SDS011;20055;51.498;11.960;2023-02-18T08:45:29;7.57;;;2.30;;
29728;SDS011;20055;51.498;11.960;2023-02-18T08:47:55;5.13;;;2.17;;
29728;SDS011;20055;51.498;11.960;2023-02-18T08:50:22;2.65;;;1.20;;
29728;SDS011;20055;51.498;11.960;2023-02-18T08:52:51;3.97;;;1.40;;
29728;SDS011;20055;51.498;11.960;2023-02-18T08:55:18;2.58;;;1.60;;
29728;SDS011;20055;51.498;11.960;2023-02-18T08:57:47;2.45;;;1.10;;
29728;SDS011;20055;51.498;11.960;2023-02-18T09:00:15;4.15;;;1.95;;
29728;SDS011;20055;51.498;11.960;2023-02-18T09:02:42;5.35;;;3.08;;
29728;SDS011;20055;51.498;11.960;2023-02-18T09:05:09;6.38;;;2.75;;
29728;SDS011;20055;51.498;11.960;2023-02-18T09:07:36;3.45;;;1.33;;
29728;SDS011;20055;51.498;11.960;2023-02-18T09:10:02;7.78;;;2.83;;
29728;SDS011;20055;51.498;11.960;2023-02-18T09:12:29;2.78;;;1.25;;
29728;SDS011;20055;51.498;11.960;2023-02-18T09:14:56;2.50;;;1.50;;
29728;SDS011;20055;51.498;11.960;2023-02-18T09:17:23;4.00;;;1.30;;
29728;SDS011;20055;51.498;11.960;2023-02-18T09:19:49;2.33;;;1.63;;
29728;SDS011;20055;51.498;11.960;2023-02-18T09:22:16;2.55;;;1.63;;
29728;SDS011;20055;51.498;11.960;2023-02-18T09:24:43;7.78;;;2.35;;
29728;SDS011;20055;51.498;11.960;2023-02-18T09:27:10;10.95;;;3.38;;
29728;SDS011;20055;51.498;11.960;2023-02-18T09:29:37;3.13;;;1.20;;
29728;SDS011;20055;51.498;11.960;2023-02-18T09:32:04;3.13;;;1.95;;
29728;SDS011;20055;51.498;11.960;2023-02-18T09:34:31;3.35;;;1.08;;
29728;SDS011;20055;51.498;11.960;2023-02-18T09:36:58;1.40;;;1.30;;
29728;SDS011;20055;51.498;11.960;2023-02-18T09:39:25;4.80;;;1.10;;
29728;SDS011;20055;51.498;11.960;2023-02-18T09:41:56;1.00;;;1.00;;
29728;SDS011;20055;51.498;11.960;2023-02-18T09:44:34;2.35;;;1.10;;
29728;SDS011;20055;51.498;11.960;2023-02-18T09:49:30;2.55;;;1.10;;
29728;SDS011;20055;51.498;11.960;2023-02-18T09:52:19;1.65;;;0.90;;
29728;SDS011;20055;51.498;11.960;2023-02-18T09:54:49;3.08;;;1.25;;
29728;SDS011;20055;51.498;11.960;2023-02-18T09:57:38;1.27;;;1.10;;
29728;SDS011;20055;51.498;11.960;2023-02-18T10:00:06;2.53;;;0.80;;
29728;SDS011;20055;51.498;11.960;2023-02-18T10:02:42;2.45;;;1.00;;
29728;SDS011;20055;51.498;11.960;2023-02-18T10:05:14;2.95;;;0.80;;
29728;SDS011;20055;51.498;11.960;2023-02-18T10:07:41;3.45;;;0.90;;
29728;SDS011;20055;51.498;11.960;2023-02-18T10:10:52;3.10;;;0.90;;
29728;SDS011;20055;51.498;11.960;2023-02-18T10:13:00;0.98;;;0.80;;
29728;SDS011;20055;51.498;11.960;2023-02-18T10:15:28;0.85;;;0.85;;
29728;SDS011;20055;51.498;11.960;2023-02-18T10:17:56;5.35;;;2.45;;
29728;SDS011;20055;51.498;11.960;2023-02-18T10:20:25;2.92;;;1.38;;
29728;SDS011;20055;51.498;11.960;2023-02-18T10:22:52;30.25;;;6.75;;
29728;SDS011;20055;51.498;11.960;2023-02-18T10:25:20;3.65;;;1.58;;
29728;SDS011;20055;51.498;11.960;2023-02-18T10:27:49;5.60;;;2.05;;
29728;SDS011;20055;51.498;11.960;2023-02-18T10:32:45;2.40;;;1.80;;
29728;SDS011;20055;51.498;11.960;2023-02-18T10:38:01;1.42;;;1.25;;
29728;SDS011;20055;51.498;11.960;2023-02-18T10:48:15;1.25;;;0.77;;
29728;SDS011;20055;51.498;11.960;2023-02-18T10:50:48;0.80;;;0.80;;
29728;SDS011;20055;51.498;11.960;2023-02-18T10:55:54;0.70;;;0.70;;
29728;SDS011;20055;51.498;11.960;2023-02-18T10:58:23;2.08;;;0.85;;
29728;SDS011;20055;51.498;11.960;2023-02-18T11:00:57;0.70;;;0.70;;
29728;SDS011;20055;51.498;11.960;2023-02-18T11:03:25;0.85;;;0.85;;
29728;SDS011;20055;51.498;11.960;2023-02-18T11:05:54;0.70;;;0.70;;
29728;SDS011;20055;51.498;11.960;2023-02-18T11:08:22;0.77;;;0.77;;
29728;SDS011;20055;51.498;11.960;2023-02-18T11:10:49;1.02;;;0.82;;
29728;SDS011;20055;51.498;11.960;2023-02-18T11:13:17;2.55;;;0.90;;
29728;SDS011;20055;51.498;11.960;2023-02-18T11:15:59;0.98;;;0.88;;
29728;SDS011;20055;51.498;11.960;2023-02-18T11:18:28;0.88;;;0.88;;
29728;SDS011;20055;51.498;11.960;2023-02-18T11:20:56;0.90;;;0.90;;
29728;SDS011;20055;51.498;11.960;2023-02-18T11:23:23;2.78;;;0.70;;
29728;SDS011;20055;51.498;11.960;2023-02-18T11:25:52;1.95;;;0.80;;
29728;SDS011;20055;51.498;11.960;2023-02-18T11:29:04;1.30;;;1.00;;
29728;SDS011;20055;51.498;11.960;2023-02-18T11:31:21;1.38;;;1.15;;
29728;SDS011;20055;51.498;11.960;2023-02-18T11:33:52;0.93;;;0.85;;
29728;SDS011;20055;51.498;11.960;2023-02-18T11:36:41;0.80;;;0.80;;
29728;SDS011;20055;51.498;11.960;2023-02-18T11:39:23;1.00;;;0.90;;
29728;SDS011;20055;51.498;11.960;2023-02-18T11:46:57;0.70;;;0.70;;
29728;SDS011;20055;51.498;11.960;2023-02-18T11:49:24;0.80;;;0.80;;
29728;SDS011;20055;51.498;11.960;2023-02-18T11:51:51;0.80;;;0.80;;
29728;SDS011;20055;51.498;11.960;2023-02-18T11:54:23;0.80;;;0.80;;
29728;SDS011;20055;51.498;11.960;2023-02-18T11:56:55;1.08;;;0.90;;
29728;SDS011;20055;51.498;11.960;2023-02-18T11:59:22;1.45;;;1.20;;
29728;SDS011;20055;51.498;11.960;2023-02-18T12:01:50;1.08;;;0.90;;
29728;SDS011;20055;51.498;11.960;2023-02-18T12:04:20;0.77;;;0.77;;
29728;SDS011;20055;51.498;11.960;2023-02-18T12:09:44;1.88;;;1.08;;
29728;SDS011;20055;51.498;11.960;2023-02-18T12:12:15;2.45;;;1.10;;
29728;SDS011;20055;51.498;11.960;2023-02-18T12:14:43;3.25;;;1.10;;
29728;SDS011;20055;51.498;11.960;2023-02-18T12:17:29;2.25;;;0.90;;
29728;SDS011;20055;51.498;11.960;2023-02-18T12:30:28;1.10;;;1.00;;
29728;SDS011;20055;51.498;11.960;2023-02-18T12:40:53;1.70;;;1.30;;
29728;SDS011;20055;51.498;11.960;2023-02-18T12:43:42;5.35;;;1.48;;
29728;SDS011;20055;51.498;11.960;2023-02-18T12:46:16;4.40;;;1.38;;
29728;SDS011;20055;51.498;11.960;2023-02-18T12:48:56;3.00;;;2.13;;
29728;SDS011;20055;51.498;11.960;2023-02-18T13:02:13;1.23;;;0.93;;
29728;SDS011;20055;51.498;11.960;2023-02-18T13:11:00;1.13;;;1.02;;
29728;SDS011;20055;51.498;11.960;2023-02-18T13:13:08;3.28;;;1.65;;
29728;SDS011;20055;51.498;11.960;2023-02-18T13:18:04;12.07;;;1.10;;
29728;SDS011;20055;51.498;11.960;2023-02-18T13:20:36;1.67;;;1.25;;
29728;SDS011;20055;51.498;11.960;2023-02-18T13:23:05;1.23;;;0.90;;
29728;SDS011;20055;51.498;11.960;2023-02-18T13:25:33;1.10;;;1.00;;
29728;SDS011;20055;51.498;11.960;2023-02-18T13:28:24;1.20;;;1.15;;
29728;SDS011;20055;51.498;11.960;2023-02-18T13:36:28;1.17;;;0.90;;
29728;SDS011;20055;51.498;11.960;2023-02-18T13:39:03;2.45;;;1.00;;
29728;SDS011;20055;51.498;11.960;2023-02-18T13:41:40;5.90;;;1.10;;
29728;SDS011;20055;51.498;11.960;2023-02-18T13:44:15;2.22;;;1.52;;
29728;SDS011;20055;51.498;11.960;2023-02-18T13:46:55;3.85;;;1.40;;
29728;SDS011;20055;51.498;11.960;2023-02-18T13:49:23;1.52;;;1.25;;
29728;SDS011;20055;51.498;11.960;2023-02-18T13:51:53;1.60;;;1.27;;
29728;SDS011;20055;51.498;11.960;2023-02-18T13:54:23;3.15;;;1.05;;
29728;SDS011;20055;51.498;11.960;2023-02-18T13:57:12;4.03;;;1.10;;
29728;SDS011;20055;51.498;11.960;2023-02-18T13:59:44;1.40;;;1.10;;
29728;SDS011;20055;51.498;11.960;2023-02-18T14:09:41;1.50;;;1.30;;
29728;SDS011;20055;51.498;11.960;2023-02-18T14:14:51;1.95;;;1.30;;
29728;SDS011;20055;51.498;11.960;2023-02-18T14:22:33;1.98;;;1.10;;
29728;SDS011;20055;51.498;11.960;2023-02-18T14:25:03;1.73;;;1.15;;
29728;SDS011;20055;51.498;11.960;2023-02-18T14:27:41;1.23;;;1.13;;
29728;SDS011;20055;51.498;11.960;2023-02-18T14:32:48;2.30;;;1.30;;
29728;SDS011;20055;51.498;11.960;2023-02-18T14:40:50;3.53;;;1.15;;
29728;SDS011;20055;51.498;11.960;2023-02-18T14:45:59;1.40;;;1.15;;
29728;SDS011;20055;51.498;11.960;2023-02-18T14:51:08;2.05;;;1.20;;
29728;SDS011;20055;51.498;11.960;2023-02-18T14:53:39;1.38;;;1.27;;
29728;SDS011;20055;51.498;11.960;2023-02-18T14:56:07;0.90;;;0.90;;
29728;SDS011;20055;51.498;11.960;2023-02-18T14:58:38;2.40;;;1.23;;
29728;SDS011;20055;51.498;11.960;2023-02-18T15:03:39;3.22;;;1.25;;
29728;SDS011;20055;51.498;11.960;2023-02-18T15:06:20;7.00;;;1.10;;
29728;SDS011;20055;51.498;11.960;2023-02-18T15:08:47;2.33;;;1.20;;
29728;SDS011;20055;51.498;11.960;2023-02-18T15:11:14;1.77;;;1.20;;
29728;SDS011;20055;51.498;11.960;2023-02-18T15:13:41;1.88;;;1.20;;
29728;SDS011;20055;51.498;11.960;2023-02-18T15:16:18;3.10;;;1.40;;
29728;SDS011;20055;51.498;11.960;2023-02-18T15:18:50;2.22;;;1.67;;
29728;SDS011;20055;51.498;11.960;2023-02-18T15:21:19;5.80;;;1.85;;
29728;SDS011;20055;51.498;11.960;2023-02-18T15:23:46;2.25;;;1.60;;
29728;SDS011;20055;51.498;11.960;2023-02-18T15:26:13;3.75;;;2.15;;
29728;SDS011;20055;51.498;11.960;2023-02-18T15:28:49;3.50;;;1.42;;
29728;SDS011;20055;51.498;11.960;2023-02-18T15:31:16;1.30;;;1.20;;
29728;SDS011;20055;51.498;11.960;2023-02-18T15:33:45;4.20;;;1.83;;
29728;SDS011;20055;51.498;11.960;2023-02-18T15:36:13;10.10;;;4.07;;
29728;SDS011;20055;51.498;11.960;2023-02-18T15:38:40;7.90;;;4.63;;
29728;SDS011;20055;51.498;11.960;2023-02-18T15:41:13;5.85;;;3.63;;
29728;SDS011;20055;51.498;11.960;2023-02-18T15:43:57;7.07;;;2.20;;
29728;SDS011;20055;51.498;11.960;2023-02-18T15:46:26;2.22;;;1.98;;
29728;SDS011;20055;51.498;11.960;2023-02-18T15:48:53;1.63;;;1.38;;
29728;SDS011;20055;51.498;11.960;2023-02-18T15:51:24;2.10;;;1.30;;
29728;SDS011;20055;51.498;11.960;2023-02-18T15:53:52;1.48;;;1.20;;
29728;SDS011;20055;51.498;11.960;2023-02-18T15:56:20;1.80;;;1.55;;
29728;SDS011;20055;51.498;11.960;2023-02-18T15:58:49;1.67;;;1.33;;
29728;SDS011;20055;51.498;11.960;2023-02-18T16:01:26;2.35;;;1.58;;
29728;SDS011;20055;51.498;11.960;2023-02-18T16:03:54;3.38;;;1.40;;
29728;SDS011;20055;51.498;11.960;2023-02-18T16:09:10;1.92;;;1.48;;
29728;SDS011;20055;51.498;11.960;2023-02-18T16:11:39;2.65;;;1.48;;
29728;SDS011;20055;51.498;11.960;2023-02-18T16:14:06;2.33;;;1.08;;
29728;SDS011;20055;51.498;11.960;2023-02-18T16:16:34;1.52;;;1.33;;
29728;SDS011;20055;51.498;11.960;2023-02-18T16:19:01;2.28;;;1.50;;
29728;SDS011;20055;51.498;11.960;2023-02-18T16:21:30;2.40;;;1.17;;
29728;SDS011;20055;51.498;11.960;2023-02-18T16:24:00;9.57;;;1.50;;
29728;SDS011;20055;51.498;11.960;2023-02-18T16:29:09;3.78;;;1.63;;
29728;SDS011;20055;51.498;11.960;2023-02-18T16:31:37;2.53;;;1.70;;
29728;SDS011;20055;51.498;11.960;2023-02-18T16:34:04;2.17;;;1.50;;
29728;SDS011;20055;51.498;11.960;2023-02-18T16:36:30;2.03;;;1.27;;
29728;SDS011;20055;51.498;11.960;2023-02-18T16:38:57;1.30;;;1.20;;
29728;SDS011;20055;51.498;11.960;2023-02-18T16:41:26;1.70;;;1.33;;
29728;SDS011;20055;51.498;11.960;2023-02-18T16:43:53;2.40;;;1.40;;
29728;SDS011;20055;51.498;11.960;2023-02-18T16:46:21;2.17;;;1.60;;
29728;SDS011;20055;51.498;11.960;2023-02-18T16:48:48;5.53;;;1.77;;
29728;SDS011;20055;51.498;11.960;2023-02-18T16:51:16;3.03;;;1.75;;
29728;SDS011;20055;51.498;11.960;2023-02-18T16:53:43;2.17;;;1.42;;
29728;SDS011;20055;51.498;11.960;2023-02-18T16:56:11;5.20;;;1.50;;
29728;SDS011;20055;51.498;11.960;2023-02-18T16:58:39;3.88;;;1.63;;
29728;SDS011;20055;51.498;11.960;2023-02-18T17:01:05;6.85;;;2.10;;
29728;SDS011;20055;51.498;11.960;2023-02-18T17:03:32;5.40;;;1.88;;